Saint Benedict, Kansas
Current Conditions -  °F | °C
As of 12:53 PM on Tuesday 21 Oct 2014 (Local Time) from KFNB Reporting Station
Clear Clear  
Wind Chill: 72°   Ceiling: Unl
Heat Index: 72°   Visibility: 10mi
Dew Point: 43°   Wind: 5mph
Humidity: 35%   Direction: NA
Pressure: 30.1"   Gusts: NA
Location:  39.8497°N, 96.0411°W
Report Text: KFNB 211753Z AUTO VRB04KT 10SM CLR 22/06 A3010 RMK AO2 SLP190 T02220061 10222 20011 58011
Loading
Personal Weather Stations






























Interactive Weather Map
Tropical Storm Tracking
New forecast layout! Learn more

10-Day Weather Forecast

Advertisements
Track Severe Weather on mobile